Time;durP1;ratioP1;P1;durP2;ratioP2;P2;SDS_P1;SDS_P2;PMS_P1;PMS_P2;Temp;Humidity;BMP_temperature;BMP_pressure;BME280_temperature;BME280_humidity;BME280_pressure;Samples;Min_cycle;Max_cycle;Signal;HPM_P1;HPM_P2
2021/07/12 00:01:26;;;;;;;1.02;0.93;;;21.50;99.90;;;;;;5046756;28;20379;-73
2021/07/12 00:03:53;;;;;;;0.90;0.90;;;21.50;99.90;;;;;;5042135;28;20227;-73
2021/07/12 00:06:20;;;;;;;0.90;0.90;;;21.40;99.90;;;;;;5044797;28;20257;-73
2021/07/12 00:08:47;;;;;;;0.80;0.80;;;21.40;99.90;;;;;;5045461;28;20217;-73
2021/07/12 00:11:14;;;;;;;1.40;1.10;;;21.20;99.90;;;;;;5046851;28;20223;-73
2021/07/12 00:13:47;;;;;;;0.80;0.80;;;21.00;99.90;;;;;;5045583;28;20334;-73
2021/07/12 00:16:14;;;;;;;1.00;1.00;;;21.00;99.90;;;;;;5046987;28;20229;-73
2021/07/12 00:18:42;;;;;;;0.90;0.90;;;21.00;99.90;;;;;;5049781;28;20280;-73
2021/07/12 00:21:09;;;;;;;1.00;1.00;;;21.00;99.90;;;;;;5048899;28;20307;-72
2021/07/12 00:23:36;;;;;;;1.40;1.30;;;21.00;99.90;;;;;;5045087;28;20303;-73
2021/07/12 00:26:03;;;;;;;0.80;0.80;;;21.00;99.90;;;;;;5044084;28;20281;-73
2021/07/12 00:28:30;;;;;;;1.00;1.00;;;21.00;99.90;;;;;;5047350;28;20306;-73
2021/07/12 00:30:59;;;;;;;0.75;0.75;;;21.00;99.90;;;;;;5045287;28;20236;-73
2021/07/12 00:33:26;;;;;;;1.00;1.00;;;21.10;99.90;;;;;;5048604;28;20242;-73
2021/07/12 00:35:54;;;;;;;1.17;1.08;;;21.00;99.90;;;;;;5041794;28;20230;-73
2021/07/12 00:38:21;;;;;;;0.90;0.90;;;21.00;99.90;;;;;;5047295;28;20226;-72
2021/07/12 00:40:48;;;;;;;1.10;1.10;;;21.00;99.90;;;;;;5064076;28;20227;-72
2021/07/12 00:43:15;;;;;;;1.10;1.10;;;21.00;99.90;;;;;;5046238;28;20230;-73
2021/07/12 00:45:42;;;;;;;0.80;0.80;;;21.00;99.90;;;;;;5042839;28;20763;-73
2021/07/12 00:48:10;;;;;;;0.98;0.98;;;21.00;99.90;;;;;;5043388;28;20268;-71
2021/07/12 00:50:39;;;;;;;1.00;1.00;;;21.00;99.90;;;;;;5044463;28;20226;-73
2021/07/12 00:53:07;;;;;;;0.80;0.80;;;20.90;99.90;;;;;;5043869;28;20222;-73
2021/07/12 00:55:37;;;;;;;1.65;0.90;;;20.90;99.90;;;;;;5048416;28;20276;-73
2021/07/12 00:58:07;;;;;;;1.30;1.02;;;20.90;99.90;;;;;;5041779;28;20219;-73
2021/07/12 01:00:35;;;;;;;0.93;0.93;;;20.90;99.90;;;;;;5048026;28;20218;-73
2021/07/12 01:03:03;;;;;;;0.98;0.98;;;20.80;99.90;;;;;;5045049;28;20223;-73
2021/07/12 01:05:32;;;;;;;0.90;0.90;;;20.80;99.90;;;;;;5042852;28;20629;-73
2021/07/12 01:08:00;;;;;;;0.77;0.77;;;20.80;99.90;;;;;;5040845;28;20222;-72
2021/07/12 01:10:28;;;;;;;1.02;1.02;;;20.70;99.90;;;;;;5041156;28;20241;-71
2021/07/12 01:13:04;;;;;;;0.85;0.85;;;20.70;99.90;;;;;;5046999;28;20356;-73
2021/07/12 01:15:38;;;;;;;1.13;1.02;;;20.70;99.90;;;;;;5044587;28;20283;-72
2021/07/12 01:18:30;;;;;;;1.00;0.90;;;20.70;99.90;;;;;;5047008;28;20226;-73
2021/07/12 01:21:40;;;;;;;0.70;0.70;;;20.70;99.90;;;;;;5041991;28;20704;-73
2021/07/12 01:27:43;;;;;;;0.90;0.90;;;20.70;99.90;;;;;;5051630;27;20590;-75
2021/07/12 01:30:15;;;;;;;1.10;1.10;;;20.70;99.90;;;;;;5057095;27;20268;-74
2021/07/12 01:33:02;;;;;;;1.00;1.00;;;20.60;99.90;;;;;;5044275;28;20647;-75
2021/07/12 01:35:39;;;;;;;0.80;0.80;;;20.60;99.90;;;;;;5035086;28;20227;-74
2021/07/12 01:38:15;;;;;;;1.00;1.00;;;20.50;99.90;;;;;;5028210;28;20219;-75
2021/07/12 01:40:51;;;;;;;1.00;1.00;;;20.60;99.90;;;;;;5043473;28;20222;-74
2021/07/12 01:43:29;;;;;;;1.10;1.00;;;20.60;99.90;;;;;;5031625;28;20711;-75
2021/07/12 01:46:01;;;;;;;0.90;0.90;;;20.50;99.90;;;;;;5035361;28;21300;-75
2021/07/12 01:48:36;;;;;;;0.95;0.95;;;20.50;99.90;;;;;;5036307;28;20968;-75
2021/07/12 01:51:07;;;;;;;0.82;0.82;;;20.50;99.90;;;;;;5037031;28;20222;-75
2021/07/12 01:53:41;;;;;;;0.90;0.90;;;20.40;99.90;;;;;;5037179;28;20225;-76
2021/07/12 01:56:16;;;;;;;0.80;0.80;;;20.40;99.90;;;;;;5038990;28;20218;-74
2021/07/12 01:58:48;;;;;;;0.93;0.93;;;20.40;99.90;;;;;;5041003;28;20716;-75
2021/07/12 02:01:16;;;;;;;0.98;0.82;;;20.40;99.90;;;;;;5033642;28;20277;-75
2021/07/12 02:03:47;;;;;;;1.35;1.20;;;20.40;99.90;;;;;;5037823;28;20226;-74
2021/07/12 02:06:16;;;;;;;1.00;0.90;;;20.40;99.90;;;;;;5037395;28;20226;-74
2021/07/12 02:08:48;;;;;;;1.13;1.02;;;20.30;99.90;;;;;;5038180;28;20733;-74
2021/07/12 02:11:16;;;;;;;1.00;1.00;;;20.30;99.90;;;;;;5035966;28;20281;-74
2021/07/12 02:13:47;;;;;;;1.08;1.08;;;20.20;99.90;;;;;;5035921;28;20215;-74
2021/07/12 02:16:15;;;;;;;1.20;1.10;;;20.20;99.90;;;;;;5036142;28;20675;-74
2021/07/12 02:18:44;;;;;;;0.90;0.90;;;20.20;99.90;;;;;;5031773;28;20218;-74
2021/07/12 02:21:13;;;;;;;1.08;1.00;;;20.20;99.90;;;;;;5034706;28;20227;-75
2021/07/12 02:23:42;;;;;;;1.23;1.13;;;20.20;99.90;;;;;;5047328;28;20223;-74
2021/07/12 02:26:11;;;;;;;1.00;1.00;;;20.20;99.90;;;;;;5036970;28;20249;-74
2021/07/12 02:28:43;;;;;;;1.20;1.10;;;20.10;99.90;;;;;;5031393;28;20239;-74
2021/07/12 02:31:13;;;;;;;0.95;0.90;;;20.10;99.90;;;;;;5029415;28;20219;-74
2021/07/12 02:33:41;;;;;;;1.20;1.10;;;20.10;99.90;;;;;;5032488;28;20305;-74
2021/07/12 02:36:10;;;;;;;1.33;1.23;;;20.10;99.90;;;;;;5032661;28;20573;-74
2021/07/12 02:38:38;;;;;;;1.20;1.10;;;20.10;99.90;;;;;;5021293;28;20227;-74
2021/07/12 02:41:06;;;;;;;1.08;1.08;;;20.00;99.90;;;;;;5023359;28;20232;-74
2021/07/12 02:43:36;;;;;;;1.13;1.13;;;20.00;99.90;;;;;;5017695;28;20226;-73
2021/07/12 02:46:05;;;;;;;1.13;1.10;;;20.00;99.90;;;;;;5021392;28;20220;-75
2021/07/12 02:48:33;;;;;;;1.20;1.20;;;20.00;99.90;;;;;;5023747;28;20219;-74
2021/07/12 02:51:04;;;;;;;1.17;1.10;;;20.00;99.90;;;;;;5021472;28;20587;-74
2021/07/12 02:53:34;;;;;;;1.30;1.20;;;19.90;99.90;;;;;;5021999;28;20706;-74
2021/07/12 02:56:01;;;;;;;1.00;1.00;;;19.90;99.90;;;;;;5023313;28;20223;-74
2021/07/12 02:58:28;;;;;;;1.02;1.02;;;19.90;99.90;;;;;;5019654;28;20307;-74
2021/07/12 03:00:55;;;;;;;1.20;1.13;;;19.80;99.90;;;;;;5023594;28;20277;-75
2021/07/12 03:03:22;;;;;;;1.08;1.08;;;19.80;99.90;;;;;;5017319;28;20219;-75
2021/07/12 03:05:54;;;;;;;1.42;1.15;;;19.80;99.90;;;;;;5022264;28;20283;-75
2021/07/12 03:08:26;;;;;;;0.90;0.90;;;19.80;99.90;;;;;;5026146;28;20219;-75
2021/07/12 03:10:59;;;;;;;1.10;1.10;;;19.80;99.90;;;;;;5021998;28;20219;-75
2021/07/12 03:13:35;;;;;;;1.10;1.10;;;19.80;99.90;;;;;;5033471;28;20255;-75
2021/07/12 03:16:03;;;;;;;0.90;0.90;;;19.70;99.90;;;;;;5022293;28;20286;-75
2021/07/12 03:18:36;;;;;;;1.33;1.23;;;19.70;99.90;;;;;;5019124;28;20269;-76
2021/07/12 03:21:06;;;;;;;1.10;1.10;;;19.60;99.90;;;;;;5020416;28;20274;-75
2021/07/12 03:23:36;;;;;;;1.10;1.10;;;19.60;99.90;;;;;;5024895;28;20226;-75
2021/07/12 03:26:05;;;;;;;1.20;1.20;;;19.60;99.90;;;;;;5019110;28;20220;-75
2021/07/12 03:28:34;;;;;;;1.63;1.17;;;19.60;99.90;;;;;;5020620;28;20688;-75
2021/07/12 03:31:03;;;;;;;1.00;1.00;;;19.60;99.90;;;;;;5020273;28;20276;-76
2021/07/12 03:33:32;;;;;;;0.90;0.90;;;19.70;99.90;;;;;;5017106;28;20284;-75
2021/07/12 03:36:00;;;;;;;1.30;1.20;;;19.70;99.90;;;;;;5022588;28;20227;-74
2021/07/12 03:38:28;;;;;;;0.98;0.98;;;19.70;99.90;;;;;;5030765;28;20305;-78
2021/07/12 03:40:55;;;;;;;1.98;1.10;;;19.70;99.90;;;;;;5031206;28;20224;-78
2021/07/12 03:43:24;;;;;;;1.20;1.10;;;19.60;99.90;;;;;;5026900;28;20227;-78
2021/07/12 03:45:56;;;;;;;1.00;1.00;;;19.50;99.90;;;;;;5031498;28;20227;-78
2021/07/12 03:48:35;;;;;;;1.00;1.00;;;19.50;99.90;;;;;;5032310;28;20238;-78
2021/07/12 03:51:03;;;;;;;1.00;1.00;;;19.40;99.90;;;;;;5026530;28;20283;-79
2021/07/12 03:53:32;;;;;;;1.20;1.20;;;19.30;99.90;;;;;;5031663;28;20290;-80
2021/07/12 03:55:59;;;;;;;1.20;1.20;;;19.30;99.90;;;;;;5033006;28;20350;-78
2021/07/12 03:58:28;;;;;;;1.80;1.20;;;19.20;99.90;;;;;;5026089;28;21289;-79
2021/07/12 04:00:55;;;;;;;1.27;1.25;;;19.20;99.90;;;;;;5032473;28;20311;-79
2021/07/12 04:03:22;;;;;;;1.25;1.13;;;19.30;99.90;;;;;;5035266;28;20223;-80
2021/07/12 04:05:49;;;;;;;1.20;1.20;;;19.20;99.90;;;;;;5036951;28;20223;-77
2021/07/12 04:08:16;;;;;;;0.90;0.90;;;19.20;99.90;;;;;;5025692;28;20223;-77
2021/07/12 04:10:44;;;;;;;1.00;1.00;;;19.20;99.90;;;;;;5026375;28;20231;-77
2021/07/12 04:13:12;;;;;;;1.05;1.05;;;19.20;99.90;;;;;;5022434;28;20219;-77
2021/07/12 04:15:41;;;;;;;1.05;1.05;;;19.20;99.90;;;;;;5027892;28;20219;-76
2021/07/12 04:18:09;;;;;;;1.17;1.17;;;19.30;99.90;;;;;;5025596;28;20230;-78
2021/07/12 04:20:36;;;;;;;1.10;1.10;;;19.30;99.90;;;;;;5025402;28;20227;-76
2021/07/12 04:23:03;;;;;;;0.90;0.90;;;19.40;99.90;;;;;;5027305;28;20215;-78
2021/07/12 04:25:30;;;;;;;0.93;0.88;;;19.50;99.90;;;;;;5023751;28;20682;-77
2021/07/12 04:27:58;;;;;;;1.20;1.20;;;19.50;99.90;;;;;;5027999;28;20277;-77
2021/07/12 04:30:26;;;;;;;1.13;1.10;;;19.60;99.90;;;;;;5023874;28;20230;-77
2021/07/12 04:32:54;;;;;;;2.15;1.00;;;19.70;99.90;;;;;;5023976;28;20231;-77
2021/07/12 04:35:21;;;;;;;1.20;1.20;;;19.80;99.90;;;;;;5023018;28;20286;-76
2021/07/12 04:37:48;;;;;;;1.20;1.20;;;19.80;99.90;;;;;;5025293;28;20231;-77
2021/07/12 04:40:16;;;;;;;1.30;1.20;;;19.90;99.90;;;;;;5032131;28;20215;-80
2021/07/12 04:42:43;;;;;;;0.90;0.90;;;20.00;99.90;;;;;;5029980;28;20224;-79
2021/07/12 04:45:12;;;;;;;1.08;1.08;;;20.10;99.90;;;;;;5033851;28;20267;-79
2021/07/12 04:47:39;;;;;;;1.08;1.00;;;20.20;99.90;;;;;;5028883;28;20285;-79
2021/07/12 04:50:09;;;;;;;1.10;1.10;;;20.20;99.90;;;;;;5030656;28;20215;-78
2021/07/12 04:52:36;;;;;;;1.10;1.10;;;20.30;99.90;;;;;;5025260;28;20792;-78
2021/07/12 04:55:06;;;;;;;1.05;0.95;;;20.40;99.90;;;;;;5033524;28;20253;-80
2021/07/12 04:57:33;;;;;;;1.20;1.10;;;20.50;99.90;;;;;;5031035;28;20277;-79
2021/07/12 05:00:01;;;;;;;1.10;1.10;;;20.60;99.90;;;;;;5030938;28;20756;-78
2021/07/12 05:02:28;;;;;;;1.00;1.00;;;20.70;99.90;;;;;;5026545;28;20243;-78
2021/07/12 05:04:55;;;;;;;1.15;1.10;;;20.70;99.90;;;;;;5026030;28;20386;-79
2021/07/12 05:07:25;;;;;;;1.27;1.20;;;20.80;99.90;;;;;;5028972;28;20227;-78
2021/07/12 05:09:52;;;;;;;1.40;1.30;;;20.90;99.90;;;;;;5029601;28;20229;-79
2021/07/12 05:12:21;;;;;;;1.45;1.35;;;21.00;99.90;;;;;;5024184;28;20575;-79
2021/07/12 05:14:48;;;;;;;1.00;1.00;;;21.10;99.90;;;;;;5030781;28;20281;-78
2021/07/12 05:17:16;;;;;;;1.55;1.10;;;21.10;99.90;;;;;;5025530;28;20216;-78
2021/07/12 05:19:43;;;;;;;1.40;1.30;;;21.10;99.90;;;;;;5026174;28;20277;-79
2021/07/12 05:22:10;;;;;;;1.30;1.20;;;21.20;99.90;;;;;;5021868;28;20227;-78
2021/07/12 05:24:38;;;;;;;1.30;1.20;;;21.20;99.90;;;;;;5024728;28;20230;-79
2021/07/12 05:27:06;;;;;;;1.60;1.42;;;21.20;99.90;;;;;;5026518;28;20227;-78
2021/07/12 05:29:34;;;;;;;1.27;1.17;;;21.30;99.90;;;;;;5028103;28;20690;-78
2021/07/12 05:32:01;;;;;;;2.03;1.20;;;21.30;99.90;;;;;;5031895;28;20609;-78
2021/07/12 05:34:28;;;;;;;1.50;1.40;;;21.40;99.90;;;;;;5029514;28;20277;-78
2021/07/12 05:36:55;;;;;;;1.50;1.40;;;21.30;99.90;;;;;;5028788;28;20219;-77
2021/07/12 05:39:22;;;;;;;1.52;1.42;;;21.30;99.90;;;;;;5030204;28;20235;-78
2021/07/12 05:41:50;;;;;;;1.27;1.27;;;21.20;99.90;;;;;;5024127;28;20231;-78
2021/07/12 05:44:17;;;;;;;1.50;1.40;;;21.20;99.90;;;;;;5024981;28;20270;-77
2021/07/12 05:46:44;;;;;;;1.27;1.17;;;21.30;99.90;;;;;;5026127;28;20289;-80
2021/07/12 05:49:11;;;;;;;2.10;1.35;;;21.40;99.90;;;;;;5031318;28;20835;-78
2021/07/12 05:51:38;;;;;;;1.20;1.20;;;21.40;99.90;;;;;;5022137;28;20254;-79
2021/07/12 05:54:05;;;;;;;1.73;1.63;;;21.60;99.90;;;;;;5028279;28;20227;-79
2021/07/12 05:56:33;;;;;;;1.58;1.45;;;21.60;99.90;;;;;;5025969;28;20232;-78
2021/07/12 05:59:01;;;;;;;1.30;1.20;;;21.60;99.90;;;;;;5023865;28;20220;-78
2021/07/12 06:01:28;;;;;;;2.42;1.42;;;21.60;99.90;;;;;;5023350;28;20247;-78
2021/07/12 06:03:55;;;;;;;1.50;1.40;;;21.80;99.90;;;;;;5019308;28;20231;-79
2021/07/12 06:06:22;;;;;;;1.40;1.30;;;21.80;99.90;;;;;;5013844;28;20281;-80
2021/07/12 06:08:49;;;;;;;1.50;1.40;;;21.90;99.90;;;;;;5020286;28;20223;-79
2021/07/12 06:11:16;;;;;;;1.58;1.48;;;22.10;99.90;;;;;;5017881;28;20278;-79
2021/07/12 06:13:44;;;;;;;1.88;1.48;;;22.30;99.90;;;;;;5020423;28;20672;-78
2021/07/12 06:16:12;;;;;;;1.65;1.55;;;22.30;99.90;;;;;;5017181;28;20215;-80
2021/07/12 06:18:39;;;;;;;1.50;1.40;;;22.30;99.90;;;;;;5020153;28;20309;-79
2021/07/12 06:21:06;;;;;;;1.33;1.23;;;22.40;99.90;;;;;;5019133;28;20231;-78
2021/07/12 06:23:33;;;;;;;2.30;1.42;;;22.50;99.90;;;;;;5019108;28;20216;-78
2021/07/12 06:26:00;;;;;;;1.50;1.40;;;22.50;99.90;;;;;;5016851;28;20224;-79
2021/07/12 06:28:27;;;;;;;1.25;1.20;;;22.60;99.90;;;;;;5019097;28;20269;-79
2021/07/12 06:30:54;;;;;;;1.73;1.60;;;22.70;99.90;;;;;;5017471;28;20233;-78
2021/07/12 06:33:26;;;;;;;2.60;1.55;;;22.70;99.90;;;;;;5016920;28;20259;-78
2021/07/12 06:35:53;;;;;;;1.88;1.77;;;22.50;99.90;;;;;;5014170;28;20223;-78
2021/07/12 06:38:21;;;;;;;4.30;1.48;;;22.40;99.90;;;;;;5025890;28;22585;-79
2021/07/12 06:40:48;;;;;;;1.40;1.30;;;22.30;99.90;;;;;;5025353;28;20232;-78
2021/07/12 06:43:15;;;;;;;2.20;1.70;;;22.30;99.90;;;;;;5023448;28;20223;-77
2021/07/12 06:45:43;;;;;;;1.60;1.50;;;22.30;99.90;;;;;;5019108;28;20289;-78
2021/07/12 06:48:10;;;;;;;1.52;1.42;;;22.50;99.90;;;;;;5021106;28;20235;-78
2021/07/12 06:50:39;;;;;;;1.52;1.42;;;22.70;99.90;;;;;;5018325;28;21159;-78
2021/07/12 06:53:06;;;;;;;2.10;1.63;;;22.80;99.90;;;;;;5020716;28;20278;-78
2021/07/12 06:55:33;;;;;;;1.55;1.42;;;22.70;99.90;;;;;;5021732;28;20249;-79
2021/07/12 06:58:03;;;;;;;1.70;1.58;;;22.80;99.90;;;;;;5022559;28;20791;-79
2021/07/12 07:00:32;;;;;;;1.55;1.45;;;22.90;99.90;;;;;;5023618;28;20230;-79
2021/07/12 07:02:59;;;;;;;1.95;1.60;;;22.80;99.90;;;;;;5024956;28;20255;-77
2021/07/12 07:05:27;;;;;;;2.17;1.60;;;22.70;99.90;;;;;;5025604;28;20233;-77
2021/07/12 07:07:56;;;;;;;1.35;1.20;;;22.60;99.90;;;;;;5023045;28;20225;-79
2021/07/12 07:10:23;;;;;;;1.98;1.60;;;22.70;99.90;;;;;;5021667;28;20220;-78
2021/07/12 07:12:50;;;;;;;1.67;1.58;;;22.80;99.90;;;;;;5021610;28;20243;-78
2021/07/12 07:15:18;;;;;;;1.70;1.45;;;23.00;99.90;;;;;;5026419;28;20285;-77
2021/07/12 07:17:45;;;;;;;1.83;1.65;;;23.20;99.90;;;;;;5025251;28;20216;-78
2021/07/12 07:20:13;;;;;;;1.85;1.70;;;23.30;99.90;;;;;;5028044;28;20227;-78
2021/07/12 07:22:40;;;;;;;4.15;1.75;;;23.30;99.90;;;;;;5025543;28;20220;-79
2021/07/12 07:25:10;;;;;;;2.22;1.52;;;23.50;99.90;;;;;;5023797;28;20281;-77
2021/07/12 07:27:38;;;;;;;1.42;1.30;;;23.50;99.90;;;;;;5025291;28;20273;-78
2021/07/12 07:30:06;;;;;;;2.33;1.75;;;23.60;99.90;;;;;;5029775;28;20218;-79
2021/07/12 07:32:33;;;;;;;1.60;1.50;;;23.80;99.90;;;;;;5025492;28;20223;-77
2021/07/12 07:35:00;;;;;;;1.60;1.50;;;23.90;99.90;;;;;;5021379;28;20224;-78
2021/07/12 07:37:27;;;;;;;1.50;1.40;;;23.90;99.90;;;;;;5023309;28;20289;-77
2021/07/12 07:39:54;;;;;;;1.75;1.65;;;23.90;99.90;;;;;;5024953;28;20779;-79
2021/07/12 07:42:23;;;;;;;1.40;1.30;;;23.90;99.90;;;;;;5022433;28;20320;-77
2021/07/12 07:44:50;;;;;;;1.73;1.60;;;24.00;99.90;;;;;;5020443;28;20269;-77
2021/07/12 07:47:17;;;;;;;1.60;1.50;;;24.10;99.90;;;;;;5025350;28;20220;-77
2021/07/12 07:49:44;;;;;;;1.23;1.13;;;24.10;99.90;;;;;;5026290;28;20223;-77
2021/07/12 07:52:11;;;;;;;1.88;1.38;;;24.20;99.90;;;;;;5025497;28;20223;-79
2021/07/12 07:54:38;;;;;;;1.45;1.35;;;24.30;99.90;;;;;;5024002;28;20223;-76
2021/07/12 07:57:06;;;;;;;1.35;1.30;;;24.30;99.90;;;;;;5023151;28;20228;-77
2021/07/12 07:59:34;;;;;;;1.90;1.45;;;24.50;99.90;;;;;;5010609;28;20274;-76
2021/07/12 08:02:01;;;;;;;1.60;1.50;;;24.70;99.90;;;;;;5029360;28;20235;-80
2021/07/12 08:04:29;;;;;;;1.50;1.40;;;24.90;99.90;;;;;;5020662;28;21603;-78
2021/07/12 08:06:56;;;;;;;1.65;1.50;;;24.80;99.90;;;;;;5027256;28;20644;-79
2021/07/12 08:09:24;;;;;;;1.40;1.30;;;24.80;99.90;;;;;;5026784;28;20219;-79
2021/07/12 08:11:52;;;;;;;1.40;1.30;;;25.00;99.90;;;;;;5033116;28;20223;-78
2021/07/12 08:14:19;;;;;;;1.33;1.23;;;25.30;99.90;;;;;;5026985;28;20636;-79
2021/07/12 08:16:49;;;;;;;2.13;1.45;;;25.60;99.90;;;;;;5028049;28;20306;-79
2021/07/12 08:19:16;;;;;;;2.35;1.70;;;25.70;99.90;;;;;;5026961;28;20594;-78
2021/07/12 08:21:43;;;;;;;1.70;1.60;;;25.70;99.90;;;;;;5032679;28;20250;-79
2021/07/12 08:24:11;;;;;;;1.52;1.42;;;25.60;99.90;;;;;;5026449;28;20642;-76
2021/07/12 08:26:39;;;;;;;1.60;1.50;;;25.60;99.90;;;;;;5027598;28;20566;-77
2021/07/12 08:29:06;;;;;;;2.63;2.05;;;25.70;99.90;;;;;;5028295;28;20235;-77
2021/07/12 08:31:33;;;;;;;1.92;1.40;;;25.70;99.90;;;;;;5024433;28;20219;-77
2021/07/12 08:34:02;;;;;;;1.80;1.70;;;25.70;99.90;;;;;;5021835;28;20276;-79
2021/07/12 08:36:29;;;;;;;2.38;1.40;;;25.90;99.90;;;;;;5024455;28;20235;-78
2021/07/12 08:38:56;;;;;;;1.50;1.40;;;26.00;99.90;;;;;;5026224;28;20227;-78
2021/07/12 08:41:24;;;;;;;1.50;1.40;;;26.00;99.90;;;;;;5019720;28;20223;-79
2021/07/12 08:43:52;;;;;;;5.07;1.55;;;26.10;99.90;;;;;;5024012;28;20254;-80
2021/07/12 08:46:20;;;;;;;1.60;1.50;;;26.00;99.90;;;;;;5024557;28;20807;-78
2021/07/12 08:48:47;;;;;;;1.38;1.23;;;26.00;99.90;;;;;;5022360;28;20717;-78
2021/07/12 08:51:16;;;;;;;2.22;1.58;;;26.30;99.90;;;;;;5022146;28;20222;-78
2021/07/12 08:53:43;;;;;;;1.70;1.60;;;26.60;99.90;;;;;;5023748;28;20216;-78
2021/07/12 08:56:10;;;;;;;1.70;1.40;;;26.70;99.90;;;;;;5014602;28;20236;-79
2021/07/12 08:58:37;;;;;;;1.80;1.55;;;27.00;99.90;;;;;;5024912;28;20277;-78
2021/07/12 09:01:06;;;;;;;2.90;1.70;;;27.00;99.90;;;;;;5019689;28;20247;-78
2021/07/12 09:03:35;;;;;;;2.30;1.58;;;27.00;99.90;;;;;;5025740;28;20223;-78
2021/07/12 09:06:07;;;;;;;2.17;1.60;;;27.00;99.90;;;;;;5015204;28;20247;-79
2021/07/12 09:08:53;;;;;;;2.10;1.60;;;27.00;99.90;;;;;;5019747;28;20219;-78
2021/07/12 09:11:26;;;;;;;1.42;1.33;;;27.00;99.90;;;;;;5024242;28;20424;-79
2021/07/12 09:14:02;;;;;;;1.30;1.20;;;26.90;99.90;;;;;;5026610;28;20323;-79
2021/07/12 09:16:49;;;;;;;1.50;1.40;;;27.00;99.90;;;;;;5023556;28;20222;-77
2021/07/12 09:19:22;;;;;;;2.17;1.30;;;27.30;99.90;;;;;;5022268;28;20777;-78
2021/07/12 09:21:53;;;;;;;1.77;1.60;;;27.50;99.90;;;;;;5024989;28;20263;-79
2021/07/12 09:24:31;;;;;;;1.95;1.63;;;27.70;99.90;;;;;;5026551;28;20282;-78
2021/07/12 09:27:02;;;;;;;1.33;1.23;;;27.90;99.90;;;;;;5020712;28;20223;-78
2021/07/12 09:29:32;;;;;;;1.63;1.50;;;27.70;99.90;;;;;;5019844;28;20251;-78
2021/07/12 09:32:00;;;;;;;1.30;1.10;;;27.60;99.90;;;;;;5016754;28;20227;-78
2021/07/12 09:34:27;;;;;;;1.60;1.45;;;27.50;99.90;;;;;;5019718;28;20235;-78
2021/07/12 09:36:55;;;;;;;3.38;1.40;;;27.60;99.90;;;;;;5024457;28;20342;-79
2021/07/12 09:39:30;;;;;;;1.50;1.40;;;27.60;99.90;;;;;;5026543;28;20597;-78
2021/07/12 09:41:58;;;;;;;1.85;1.40;;;27.70;99.90;;;;;;5021098;28;20321;-78
2021/07/12 09:44:28;;;;;;;1.50;1.40;;;27.70;99.90;;;;;;5028278;28;20226;-78
2021/07/12 09:46:57;;;;;;;1.48;1.30;;;27.80;99.90;;;;;;5024025;28;20301;-77
2021/07/12 09:49:26;;;;;;;1.70;1.50;;;27.80;99.90;;;;;;5030637;28;20223;-76
2021/07/12 09:51:55;;;;;;;1.13;1.10;;;27.90;99.90;;;;;;5025505;28;20219;-79
2021/07/12 09:54:27;;;;;;;1.50;1.40;;;28.10;99.90;;;;;;5034118;28;20246;-79
2021/07/12 09:56:56;;;;;;;1.65;1.55;;;28.20;99.90;;;;;;5032112;28;20227;-79
2021/07/12 09:59:24;;;;;;;1.30;1.20;;;28.10;99.90;;;;;;5036384;28;20289;-78
2021/07/12 10:01:53;;;;;;;1.70;1.60;;;28.20;99.90;;;;;;5033068;28;20231;-79
2021/07/12 10:04:20;;;;;;;1.50;1.40;;;28.50;99.90;;;;;;5028844;28;20282;-78
2021/07/12 10:06:50;;;;;;;1.65;1.55;;;28.80;99.90;;;;;;5030961;28;20215;-78
2021/07/12 10:09:21;;;;;;;1.45;1.35;;;28.90;99.90;;;;;;5031839;28;20298;-79
2021/07/12 10:11:50;;;;;;;1.35;1.13;;;28.90;99.90;;;;;;5032152;28;20231;-78
2021/07/12 10:14:19;;;;;;;1.48;1.38;;;29.00;99.90;;;;;;5029017;28;20607;-78
2021/07/12 10:16:46;;;;;;;1.30;1.20;;;29.10;99.90;;;;;;5032652;28;20243;-78
2021/07/12 10:19:14;;;;;;;2.45;1.48;;;29.30;99.90;;;;;;5032006;28;20270;-78
2021/07/12 10:21:47;;;;;;;1.48;1.30;;;29.10;99.90;;;;;;5027560;28;20220;-79
2021/07/12 10:24:15;;;;;;;2.50;1.42;;;29.00;99.90;;;;;;5027715;28;20262;-78
2021/07/12 10:27:01;;;;;;;1.50;1.40;;;28.90;99.90;;;;;;5032647;28;20266;-78
2021/07/12 10:29:32;;;;;;;1.40;1.27;;;28.80;99.90;;;;;;5032185;28;20239;-79
2021/07/12 10:32:06;;;;;;;1.50;1.40;;;29.10;99.90;;;;;;5028669;28;20230;-78
2021/07/12 10:34:36;;;;;;;3.05;1.52;;;29.20;99.90;;;;;;5030322;28;20218;-79
2021/07/12 10:37:09;;;;;;;2.15;1.33;;;29.20;99.90;;;;;;5030331;28;20254;-78
2021/07/12 10:40:05;;;;;;;3.17;1.50;;;29.20;99.90;;;;;;5035413;28;20578;-78
2021/07/12 10:43:02;;;;;;;1.70;1.60;;;29.30;99.90;;;;;;5029903;28;20239;-79
2021/07/12 10:45:50;;;;;;;1.30;1.20;;;29.20;99.90;;;;;;4973058;28;20703;-78
2021/07/12 10:48:17;;;;;;;1.42;1.33;;;29.30;99.90;;;;;;5023241;28;20324;-79
2021/07/12 10:50:49;;;;;;;1.60;1.35;;;29.40;99.90;;;;;;5029344;28;20228;-79
2021/07/12 10:53:41;;;;;;;1.35;1.25;;;29.30;99.90;;;;;;5034383;28;20667;-79
2021/07/12 10:56:14;;;;;;;1.50;1.40;;;29.40;99.90;;;;;;5028094;28;20224;-78
2021/07/12 10:58:51;;;;;;;1.35;1.10;;;29.60;99.90;;;;;;5030724;28;20269;-78
2021/07/12 11:01:38;;;;;;;2.60;1.17;;;29.70;99.90;;;;;;5027955;28;20257;-78
2021/07/12 11:04:39;;;;;;;1.45;1.35;;;29.80;99.90;;;;;;5027711;28;20253;-78
2021/07/12 11:07:09;;;;;;;2.65;1.40;;;29.90;99.90;;;;;;5034470;28;20218;-78
2021/07/12 11:09:55;;;;;;;1.65;1.50;;;30.00;99.90;;;;;;5040768;28;20220;-78
2021/07/12 11:12:37;;;;;;;1.88;1.50;;;30.00;99.90;;;;;;5033382;28;20248;-79
2021/07/12 11:15:45;;;;;;;2.25;1.40;;;30.00;99.90;;;;;;5024731;28;20254;-79
2021/07/12 11:18:26;;;;;;;1.75;1.65;;;30.00;99.90;;;;;;5029024;28;20283;-79
2021/07/12 11:21:02;;;;;;;1.83;1.58;;;30.00;99.90;;;;;;5034641;28;20230;-79
2021/07/12 11:23:55;;;;;;;2.13;1.42;;;30.20;99.90;;;;;;5028256;28;20246;-79
2021/07/12 11:26:56;;;;;;;1.58;1.48;;;30.20;99.90;;;;;;5030674;28;20218;-78
2021/07/12 11:29:39;;;;;;;1.60;1.50;;;30.10;99.90;;;;;;5031222;28;20229;-79
2021/07/12 11:32:23;;;;;;;2.80;1.70;;;30.00;99.90;;;;;;5028314;28;20227;-79
2021/07/12 11:34:56;;;;;;;3.47;1.63;;;30.10;99.90;;;;;;5032831;28;20220;-77
2021/07/12 11:37:26;;;;;;;1.85;1.60;;;30.10;99.90;;;;;;5031111;28;20227;-77
2021/07/12 11:39:55;;;;;;;2.58;1.52;;;30.10;99.90;;;;;;5032640;28;20220;-77
2021/07/12 11:42:25;;;;;;;2.22;1.70;;;30.20;99.90;;;;;;5021190;28;20701;-78
2021/07/12 11:44:55;;;;;;;1.48;1.38;;;30.30;99.90;;;;;;5028975;28;20216;-78
2021/07/12 11:47:25;;;;;;;1.88;1.67;;;30.50;99.90;;;;;;5029525;28;20285;-78
2021/07/12 11:50:00;;;;;;;2.53;1.60;;;30.70;99.90;;;;;;5032257;28;20662;-78
2021/07/12 11:52:28;;;;;;;2.03;1.75;;;30.70;99.90;;;;;;5030741;28;20277;-79
2021/07/12 11:55:08;;;;;;;1.90;1.40;;;30.70;99.90;;;;;;5028308;28;20269;-79
2021/07/12 11:57:36;;;;;;;2.00;1.83;;;30.60;99.90;;;;;;5025054;28;20262;-78
2021/07/12 12:00:08;;;;;;;1.85;1.58;;;30.80;99.90;;;;;;5031905;28;20238;-79
2021/07/12 12:02:35;;;;;;;1.40;1.30;;;30.80;99.90;;;;;;5028492;28;20222;-77
2021/07/12 12:05:08;;;;;;;1.67;1.58;;;30.70;99.90;;;;;;5032041;28;20269;-79
2021/07/12 12:07:40;;;;;;;2.65;1.88;;;30.60;99.90;;;;;;5027637;28;20216;-78
2021/07/12 12:10:13;;;;;;;2.05;1.85;;;30.70;99.90;;;;;;5029959;28;20745;-78
2021/07/12 12:12:43;;;;;;;1.60;1.50;;;30.70;99.90;;;;;;5028984;28;20223;-79
2021/07/12 12:15:13;;;;;;;1.85;1.75;;;30.70;99.90;;;;;;5031289;28;20289;-79
2021/07/12 12:17:45;;;;;;;2.10;1.65;;;30.60;99.90;;;;;;5033425;28;20783;-78
2021/07/12 12:20:18;;;;;;;3.95;1.50;;;30.80;99.90;;;;;;5014893;28;20235;-78
2021/07/12 12:23:07;;;;;;;1.83;1.70;;;30.90;99.90;;;;;;5024551;28;20249;-79
2021/07/12 12:25:37;;;;;;;2.75;1.73;;;30.80;99.90;;;;;;5025001;28;20222;-78
2021/07/12 12:28:06;;;;;;;1.60;1.50;;;30.60;99.90;;;;;;5019560;28;20224;-78
2021/07/12 12:30:35;;;;;;;3.60;1.95;;;30.80;99.90;;;;;;5016293;28;20318;-78
2021/07/12 12:33:02;;;;;;;1.50;1.40;;;30.90;99.90;;;;;;5020739;28;20231;-79
2021/07/12 12:35:34;;;;;;;2.15;1.60;;;30.90;99.90;;;;;;5020247;28;20231;-78
2021/07/12 12:38:13;;;;;;;2.15;1.90;;;30.90;99.90;;;;;;5027918;28;20554;-78
2021/07/12 12:40:40;;;;;;;1.70;1.60;;;30.90;99.90;;;;;;5019335;28;20215;-79
2021/07/12 12:43:13;;;;;;;2.17;1.90;;;31.00;99.90;;;;;;5020416;28;20223;-78
2021/07/12 12:45:51;;;;;;;1.75;1.63;;;31.10;99.90;;;;;;5019609;28;20231;-78
2021/07/12 12:48:36;;;;;;;2.22;2.03;;;31.00;99.90;;;;;;5018444;28;20269;-79
2021/07/12 12:51:28;;;;;;;2.40;1.90;;;30.90;99.90;;;;;;5023255;28;20227;-77
2021/07/12 12:54:12;;;;;;;2.10;1.80;;;30.80;99.90;;;;;;5018516;28;20225;-78
2021/07/12 12:56:48;;;;;;;2.05;1.75;;;30.80;99.90;;;;;;5020216;28;20262;-78
2021/07/12 12:59:16;;;;;;;2.80;1.67;;;30.90;99.90;;;;;;5019261;28;20708;-78
2021/07/12 13:01:45;;;;;;;3.08;1.60;;;31.10;99.90;;;;;;5019683;28;20286;-78
2021/07/12 13:04:15;;;;;;;2.20;2.05;;;31.00;99.90;;;;;;5019226;28;20231;-78
2021/07/12 13:06:49;;;;;;;1.83;1.73;;;31.00;99.90;;;;;;5019278;28;20230;-78
2021/07/12 13:09:25;;;;;;;2.08;1.88;;;31.00;99.90;;;;;;5016914;28;20791;-78